sensor_id;sensor_type;location;lat;lon;timestamp;temperature;humidity
52899;DHT22;38763;53.096;6.062;2022-08-03T00:00:47;19.20;99.90
52899;DHT22;38763;53.096;6.062;2022-08-03T00:03:13;19.20;99.90
52899;DHT22;38763;53.096;6.062;2022-08-03T00:05:38;19.20;99.90
52899;DHT22;38763;53.096;6.062;2022-08-03T00:08:04;19.20;99.90
52899;DHT22;38763;53.096;6.062;2022-08-03T00:10:30;19.20;99.90
52899;DHT22;38763;53.096;6.062;2022-08-03T00:12:55;19.20;99.90
52899;DHT22;38763;53.096;6.062;2022-08-03T00:15:21;19.20;99.90
52899;DHT22;38763;53.096;6.062;2022-08-03T00:17:47;19.20;99.90
52899;DHT22;38763;53.096;6.062;2022-08-03T00:20:12;19.20;99.90
52899;DHT22;38763;53.096;6.062;2022-08-03T00:22:38;19.10;99.90
52899;DHT22;38763;53.096;6.062;2022-08-03T00:25:04;19.10;99.90
52899;DHT22;38763;53.096;6.062;2022-08-03T00:27:30;19.10;99.90
52899;DHT22;38763;53.096;6.062;2022-08-03T00:29:55;19.00;99.90
52899;DHT22;38763;53.096;6.062;2022-08-03T00:32:22;19.00;99.90
52899;DHT22;38763;53.096;6.062;2022-08-03T00:34:47;19.00;99.90
52899;DHT22;38763;53.096;6.062;2022-08-03T00:37:13;19.00;99.90
52899;DHT22;38763;53.096;6.062;2022-08-03T00:39:38;19.10;99.90
52899;DHT22;38763;53.096;6.062;2022-08-03T00:42:05;19.00;99.90
52899;DHT22;38763;53.096;6.062;2022-08-03T00:44:37;19.00;99.90
52899;DHT22;38763;53.096;6.062;2022-08-03T00:47:03;19.00;99.90
52899;DHT22;38763;53.096;6.062;2022-08-03T00:49:28;19.00;99.90
52899;DHT22;38763;53.096;6.062;2022-08-03T00:51:54;19.00;99.90
52899;DHT22;38763;53.096;6.062;2022-08-03T00:54:20;19.00;99.90
52899;DHT22;38763;53.096;6.062;2022-08-03T00:56:46;19.00;99.90
52899;DHT22;38763;53.096;6.062;2022-08-03T00:59:13;19.00;99.90
52899;DHT22;38763;53.096;6.062;2022-08-03T01:01:39;18.90;99.90
52899;DHT22;38763;53.096;6.062;2022-08-03T01:04:05;18.90;99.90
52899;DHT22;38763;53.096;6.062;2022-08-03T01:09:46;18.90;99.90
52899;DHT22;38763;53.096;6.062;2022-08-03T01:12:23;18.90;99.90
52899;DHT22;38763;53.096;6.062;2022-08-03T01:18:08;18.90;99.90
52899;DHT22;38763;53.096;6.062;2022-08-03T01:20:40;18.80;99.90
52899;DHT22;38763;53.096;6.062;2022-08-03T01:31:38;18.80;99.90
52899;DHT22;38763;53.096;6.062;2022-08-03T01:34:08;18.70;99.90
52899;DHT22;38763;53.096;6.062;2022-08-03T01:36:38;18.70;99.90
52899;DHT22;38763;53.096;6.062;2022-08-03T01:39:05;18.70;99.90
52899;DHT22;38763;53.096;6.062;2022-08-03T01:41:38;18.70;99.90
52899;DHT22;38763;53.096;6.062;2022-08-03T01:44:08;18.70;99.90
52899;DHT22;38763;53.096;6.062;2022-08-03T01:46:36;18.60;99.90
52899;DHT22;38763;53.096;6.062;2022-08-03T01:49:03;18.60;99.90
52899;DHT22;38763;53.096;6.062;2022-08-03T01:51:31;18.60;99.90
52899;DHT22;38763;53.096;6.062;2022-08-03T01:53:58;18.60;99.90
52899;DHT22;38763;53.096;6.062;2022-08-03T01:56:25;18.50;99.90
52899;DHT22;38763;53.096;6.062;2022-08-03T01:58:52;18.50;99.90
52899;DHT22;38763;53.096;6.062;2022-08-03T02:01:20;18.50;99.90
52899;DHT22;38763;53.096;6.062;2022-08-03T02:03:48;18.50;99.90
52899;DHT22;38763;53.096;6.062;2022-08-03T02:06:16;18.50;99.90
52899;DHT22;38763;53.096;6.062;2022-08-03T02:08:44;18.50;99.90
52899;DHT22;38763;53.096;6.062;2022-08-03T02:11:11;18.40;99.90
52899;DHT22;38763;53.096;6.062;2022-08-03T02:13:37;18.50;99.90
52899;DHT22;38763;53.096;6.062;2022-08-03T02:16:04;18.50;99.90
52899;DHT22;38763;53.096;6.062;2022-08-03T02:18:30;18.50;99.90
52899;DHT22;38763;53.096;6.062;2022-08-03T02:20:58;18.40;99.90
52899;DHT22;38763;53.096;6.062;2022-08-03T02:23:24;18.30;99.90
52899;DHT22;38763;53.096;6.062;2022-08-03T02:25:53;18.50;99.90
52899;DHT22;38763;53.096;6.062;2022-08-03T02:28:21;18.40;99.90
52899;DHT22;38763;53.096;6.062;2022-08-03T02:30:53;18.40;99.90
52899;DHT22;38763;53.096;6.062;2022-08-03T02:33:25;18.40;99.90
52899;DHT22;38763;53.096;6.062;2022-08-03T02:35:51;18.40;99.90
52899;DHT22;38763;53.096;6.062;2022-08-03T02:38:20;18.40;99.90
52899;DHT22;38763;53.096;6.062;2022-08-03T02:40:49;18.40;99.90
52899;DHT22;38763;53.096;6.062;2022-08-03T02:43:19;18.40;99.90
52899;DHT22;38763;53.096;6.062;2022-08-03T02:45:48;18.40;99.90
52899;DHT22;38763;53.096;6.062;2022-08-03T02:48:21;18.30;99.90
52899;DHT22;38763;53.096;6.062;2022-08-03T02:50:50;18.40;99.90
52899;DHT22;38763;53.096;6.062;2022-08-03T02:53:17;18.30;99.90
52899;DHT22;38763;53.096;6.062;2022-08-03T02:55:48;18.30;99.90
52899;DHT22;38763;53.096;6.062;2022-08-03T02:58:17;18.30;99.90
52899;DHT22;38763;53.096;6.062;2022-08-03T03:00:43;18.30;99.90
52899;DHT22;38763;53.096;6.062;2022-08-03T03:03:10;18.30;99.90
52899;DHT22;38763;53.096;6.062;2022-08-03T03:05:36;18.30;99.90
52899;DHT22;38763;53.096;6.062;2022-08-03T03:08:03;18.30;99.90
52899;DHT22;38763;53.096;6.062;2022-08-03T03:10:29;18.30;99.90
52899;DHT22;38763;53.096;6.062;2022-08-03T03:12:56;18.20;99.90
52899;DHT22;38763;53.096;6.062;2022-08-03T03:15:24;18.20;99.90
52899;DHT22;38763;53.096;6.062;2022-08-03T03:17:52;18.20;99.90
52899;DHT22;38763;53.096;6.062;2022-08-03T03:20:18;18.20;99.90
52899;DHT22;38763;53.096;6.062;2022-08-03T03:22:46;18.10;99.90
52899;DHT22;38763;53.096;6.062;2022-08-03T03:25:12;18.20;99.90
52899;DHT22;38763;53.096;6.062;2022-08-03T03:27:38;18.10;99.90
52899;DHT22;38763;53.096;6.062;2022-08-03T03:30:05;18.10;99.90
52899;DHT22;38763;53.096;6.062;2022-08-03T03:32:31;18.10;99.90
52899;DHT22;38763;53.096;6.062;2022-08-03T03:34:57;18.10;99.90
52899;DHT22;38763;53.096;6.062;2022-08-03T03:37:24;18.00;99.90
52899;DHT22;38763;53.096;6.062;2022-08-03T03:39:52;18.00;99.90
52899;DHT22;38763;53.096;6.062;2022-08-03T03:42:19;18.10;99.90
52899;DHT22;38763;53.096;6.062;2022-08-03T03:44:44;18.10;99.90
52899;DHT22;38763;53.096;6.062;2022-08-03T03:47:10;18.00;99.90
52899;DHT22;38763;53.096;6.062;2022-08-03T03:49:36;17.90;99.90
52899;DHT22;38763;53.096;6.062;2022-08-03T03:52:02;18.00;99.90
52899;DHT22;38763;53.096;6.062;2022-08-03T03:54:41;17.90;99.90
52899;DHT22;38763;53.096;6.062;2022-08-03T03:57:08;17.90;99.90
52899;DHT22;38763;53.096;6.062;2022-08-03T03:59:43;17.90;99.90
52899;DHT22;38763;53.096;6.062;2022-08-03T04:02:10;17.90;99.90
52899;DHT22;38763;53.096;6.062;2022-08-03T04:04:36;17.90;99.90
52899;DHT22;38763;53.096;6.062;2022-08-03T04:07:23;17.90;99.90
52899;DHT22;38763;53.096;6.062;2022-08-03T04:10:13;17.90;99.90
52899;DHT22;38763;53.096;6.062;2022-08-03T04:12:59;17.90;99.90
52899;DHT22;38763;53.096;6.062;2022-08-03T04:15:27;17.90;99.90
52899;DHT22;38763;53.096;6.062;2022-08-03T04:17:56;17.80;99.90
52899;DHT22;38763;53.096;6.062;2022-08-03T04:20:23;17.90;99.90
52899;DHT22;38763;53.096;6.062;2022-08-03T04:22:51;17.90;99.90
52899;DHT22;38763;53.096;6.062;2022-08-03T04:25:20;17.90;99.90
52899;DHT22;38763;53.096;6.062;2022-08-03T04:27:48;17.90;99.90
52899;DHT22;38763;53.096;6.062;2022-08-03T04:30:17;17.90;99.90
52899;DHT22;38763;53.096;6.062;2022-08-03T04:32:44;17.90;99.90
52899;DHT22;38763;53.096;6.062;2022-08-03T04:35:16;17.90;99.90
52899;DHT22;38763;53.096;6.062;2022-08-03T04:37:45;17.90;99.90
52899;DHT22;38763;53.096;6.062;2022-08-03T04:40:33;18.00;99.90
52899;DHT22;38763;53.096;6.062;2022-08-03T04:42:59;17.90;99.90
52899;DHT22;38763;53.096;6.062;2022-08-03T04:45:26;18.00;99.90
52899;DHT22;38763;53.096;6.062;2022-08-03T04:47:52;17.90;99.90
52899;DHT22;38763;53.096;6.062;2022-08-03T04:50:19;17.90;99.90
52899;DHT22;38763;53.096;6.062;2022-08-03T04:52:44;18.00;99.90
52899;DHT22;38763;53.096;6.062;2022-08-03T04:55:10;18.00;99.90
52899;DHT22;38763;53.096;6.062;2022-08-03T04:57:36;18.00;99.90
52899;DHT22;38763;53.096;6.062;2022-08-03T05:00:02;18.00;99.90
52899;DHT22;38763;53.096;6.062;2022-08-03T05:02:29;18.10;99.90
52899;DHT22;38763;53.096;6.062;2022-08-03T05:04:55;18.00;99.90
52899;DHT22;38763;53.096;6.062;2022-08-03T05:07:21;18.10;99.90
52899;DHT22;38763;53.096;6.062;2022-08-03T05:09:47;18.10;99.90
52899;DHT22;38763;53.096;6.062;2022-08-03T05:12:12;18.20;99.90
52899;DHT22;38763;53.096;6.062;2022-08-03T05:14:38;18.10;99.90
52899;DHT22;38763;53.096;6.062;2022-08-03T05:17:04;18.20;99.90
52899;DHT22;38763;53.096;6.062;2022-08-03T05:19:30;18.30;99.90
52899;DHT22;38763;53.096;6.062;2022-08-03T05:21:56;18.20;99.90
52899;DHT22;38763;53.096;6.062;2022-08-03T05:24:21;18.30;99.90
52899;DHT22;38763;53.096;6.062;2022-08-03T05:26:47;18.30;99.90
52899;DHT22;38763;53.096;6.062;2022-08-03T05:29:13;18.30;99.90
52899;DHT22;38763;53.096;6.062;2022-08-03T05:31:38;18.40;99.90
52899;DHT22;38763;53.096;6.062;2022-08-03T05:34:05;18.50;99.90
52899;DHT22;38763;53.096;6.062;2022-08-03T05:36:31;18.60;99.90
52899;DHT22;38763;53.096;6.062;2022-08-03T05:38:56;19.00;99.90
52899;DHT22;38763;53.096;6.062;2022-08-03T05:41:22;19.10;99.90
52899;DHT22;38763;53.096;6.062;2022-08-03T05:43:48;19.20;99.90
52899;DHT22;38763;53.096;6.062;2022-08-03T05:46:14;19.30;99.90
52899;DHT22;38763;53.096;6.062;2022-08-03T05:48:41;19.30;99.90
52899;DHT22;38763;53.096;6.062;2022-08-03T05:51:06;19.30;99.90
52899;DHT22;38763;53.096;6.062;2022-08-03T05:53:36;19.30;99.90
52899;DHT22;38763;53.096;6.062;2022-08-03T05:56:02;19.40;99.90
52899;DHT22;38763;53.096;6.062;2022-08-03T05:58:28;19.40;99.90
52899;DHT22;38763;53.096;6.062;2022-08-03T06:00:53;19.40;99.90
52899;DHT22;38763;53.096;6.062;2022-08-03T06:03:19;19.50;99.90
52899;DHT22;38763;53.096;6.062;2022-08-03T06:05:45;19.50;99.90
52899;DHT22;38763;53.096;6.062;2022-08-03T06:08:10;19.50;99.90
52899;DHT22;38763;53.096;6.062;2022-08-03T06:10:37;19.40;99.90
52899;DHT22;38763;53.096;6.062;2022-08-03T06:13:03;19.50;99.90
52899;DHT22;38763;53.096;6.062;2022-08-03T06:15:28;19.50;99.90
52899;DHT22;38763;53.096;6.062;2022-08-03T06:17:55;19.50;99.90
52899;DHT22;38763;53.096;6.062;2022-08-03T06:20:22;19.70;99.90
52899;DHT22;38763;53.096;6.062;2022-08-03T06:22:48;19.70;99.90
52899;DHT22;38763;53.096;6.062;2022-08-03T06:25:13;19.80;99.90
52899;DHT22;38763;53.096;6.062;2022-08-03T06:27:39;19.80;99.90
52899;DHT22;38763;53.096;6.062;2022-08-03T06:30:09;19.90;99.90
52899;DHT22;38763;53.096;6.062;2022-08-03T06:32:41;20.00;99.90
52899;DHT22;38763;53.096;6.062;2022-08-03T06:35:08;20.20;99.90
52899;DHT22;38763;53.096;6.062;2022-08-03T06:37:48;20.40;99.90
52899;DHT22;38763;53.096;6.062;2022-08-03T06:40:17;20.50;99.90
52899;DHT22;38763;53.096;6.062;2022-08-03T06:42:43;20.70;99.90
52899;DHT22;38763;53.096;6.062;2022-08-03T06:45:09;20.70;99.90
52899;DHT22;38763;53.096;6.062;2022-08-03T06:47:38;20.80;99.90
52899;DHT22;38763;53.096;6.062;2022-08-03T06:50:05;20.90;99.90
52899;DHT22;38763;53.096;6.062;2022-08-03T06:52:31;21.10;99.90
52899;DHT22;38763;53.096;6.062;2022-08-03T06:54:57;21.20;99.90
52899;DHT22;38763;53.096;6.062;2022-08-03T06:57:23;21.20;99.90
52899;DHT22;38763;53.096;6.062;2022-08-03T06:59:48;21.20;99.90
52899;DHT22;38763;53.096;6.062;2022-08-03T07:02:14;21.30;99.90
52899;DHT22;38763;53.096;6.062;2022-08-03T07:04:40;21.40;99.90
52899;DHT22;38763;53.096;6.062;2022-08-03T07:07:05;21.60;99.90
52899;DHT22;38763;53.096;6.062;2022-08-03T07:09:31;21.70;99.90
52899;DHT22;38763;53.096;6.062;2022-08-03T07:11:56;21.80;99.90
52899;DHT22;38763;53.096;6.062;2022-08-03T07:14:23;21.70;99.90
52899;DHT22;38763;53.096;6.062;2022-08-03T07:16:48;21.50;99.90
52899;DHT22;38763;53.096;6.062;2022-08-03T07:19:14;21.50;99.90
52899;DHT22;38763;53.096;6.062;2022-08-03T07:21:40;21.60;99.90
52899;DHT22;38763;53.096;6.062;2022-08-03T07:24:06;21.70;99.90
52899;DHT22;38763;53.096;6.062;2022-08-03T07:26:31;21.60;99.90
52899;DHT22;38763;53.096;6.062;2022-08-03T07:28:57;21.60;99.90
52899;DHT22;38763;53.096;6.062;2022-08-03T07:31:25;21.60;99.90
52899;DHT22;38763;53.096;6.062;2022-08-03T07:33:50;21.40;99.90
52899;DHT22;38763;53.096;6.062;2022-08-03T07:36:16;21.50;99.90
52899;DHT22;38763;53.096;6.062;2022-08-03T07:38:41;21.30;99.90
52899;DHT22;38763;53.096;6.062;2022-08-03T07:41:07;21.40;99.90
52899;DHT22;38763;53.096;6.062;2022-08-03T07:43:32;21.40;99.90
52899;DHT22;38763;53.096;6.062;2022-08-03T07:45:58;22.00;99.90
52899;DHT22;38763;53.096;6.062;2022-08-03T07:48:24;23.20;99.90
52899;DHT22;38763;53.096;6.062;2022-08-03T07:50:49;24.50;99.90
52899;DHT22;38763;53.096;6.062;2022-08-03T07:53:16;25.50;99.90
52899;DHT22;38763;53.096;6.062;2022-08-03T07:55:41;25.80;99.90
52899;DHT22;38763;53.096;6.062;2022-08-03T07:58:09;26.80;99.90
52899;DHT22;38763;53.096;6.062;2022-08-03T08:00:37;27.50;99.90
52899;DHT22;38763;53.096;6.062;2022-08-03T08:03:03;27.50;99.90
52899;DHT22;38763;53.096;6.062;2022-08-03T08:05:29;28.30;99.90
52899;DHT22;38763;53.096;6.062;2022-08-03T08:07:55;28.30;99.90
52899;DHT22;38763;53.096;6.062;2022-08-03T08:10:21;28.50;99.90
52899;DHT22;38763;53.096;6.062;2022-08-03T08:12:47;28.60;99.90
52899;DHT22;38763;53.096;6.062;2022-08-03T08:15:12;29.00;99.90
52899;DHT22;38763;53.096;6.062;2022-08-03T08:17:46;28.50;99.90
52899;DHT22;38763;53.096;6.062;2022-08-03T08:20:16;28.20;99.90
52899;DHT22;38763;53.096;6.062;2022-08-03T08:22:41;28.10;99.90
52899;DHT22;38763;53.096;6.062;2022-08-03T08:25:07;27.80;99.90
52899;DHT22;38763;53.096;6.062;2022-08-03T08:27:39;27.40;99.90
52899;DHT22;38763;53.096;6.062;2022-08-03T08:30:05;27.10;99.90
52899;DHT22;38763;53.096;6.062;2022-08-03T08:32:31;27.20;99.90
52899;DHT22;38763;53.096;6.062;2022-08-03T08:34:57;26.60;99.90
52899;DHT22;38763;53.096;6.062;2022-08-03T08:37:22;26.60;99.90
52899;DHT22;38763;53.096;6.062;2022-08-03T08:39:48;26.10;99.90
52899;DHT22;38763;53.096;6.062;2022-08-03T08:42:14;26.00;99.90
52899;DHT22;38763;53.096;6.062;2022-08-03T08:44:40;26.50;99.90
52899;DHT22;38763;53.096;6.062;2022-08-03T08:47:07;27.10;99.90
52899;DHT22;38763;53.096;6.062;2022-08-03T08:49:34;27.30;99.90
52899;DHT22;38763;53.096;6.062;2022-08-03T08:52:02;28.20;99.90
52899;DHT22;38763;53.096;6.062;2022-08-03T08:54:30;28.20;99.90
52899;DHT22;38763;53.096;6.062;2022-08-03T08:57:01;28.60;99.90
52899;DHT22;38763;53.096;6.062;2022-08-03T08:59:27;28.40;99.90
52899;DHT22;38763;53.096;6.062;2022-08-03T09:01:59;27.60;99.90
52899;DHT22;38763;53.096;6.062;2022-08-03T09:04:25;27.00;99.90
52899;DHT22;38763;53.096;6.062;2022-08-03T09:06:51;26.40;99.90
52899;DHT22;38763;53.096;6.062;2022-08-03T09:09:17;26.30;99.90
52899;DHT22;38763;53.096;6.062;2022-08-03T09:11:43;26.20;99.90
52899;DHT22;38763;53.096;6.062;2022-08-03T09:14:10;26.20;99.90
52899;DHT22;38763;53.096;6.062;2022-08-03T09:16:35;26.70;99.90
52899;DHT22;38763;53.096;6.062;2022-08-03T09:19:12;26.70;99.90
52899;DHT22;38763;53.096;6.062;2022-08-03T09:21:38;26.40;99.90
52899;DHT22;38763;53.096;6.062;2022-08-03T09:24:05;26.10;99.90
52899;DHT22;38763;53.096;6.062;2022-08-03T09:26:33;26.20;99.90
52899;DHT22;38763;53.096;6.062;2022-08-03T09:29:09;25.80;99.90
52899;DHT22;38763;53.096;6.062;2022-08-03T09:34:06;25.80;99.90
52899;DHT22;38763;53.096;6.062;2022-08-03T09:36:48;26.40;99.90
52899;DHT22;38763;53.096;6.062;2022-08-03T09:41:46;26.80;99.90
52899;DHT22;38763;53.096;6.062;2022-08-03T09:44:13;26.70;99.90
52899;DHT22;38763;53.096;6.062;2022-08-03T09:46:49;27.30;99.90
52899;DHT22;38763;53.096;6.062;2022-08-03T09:49:15;27.90;99.90
52899;DHT22;38763;53.096;6.062;2022-08-03T09:51:41;28.20;99.90
52899;DHT22;38763;53.096;6.062;2022-08-03T09:54:06;27.70;99.90
52899;DHT22;38763;53.096;6.062;2022-08-03T09:56:39;27.80;99.90
52899;DHT22;38763;53.096;6.062;2022-08-03T09:59:04;28.30;99.90
52899;DHT22;38763;53.096;6.062;2022-08-03T10:01:33;28.00;99.90
52899;DHT22;38763;53.096;6.062;2022-08-03T10:03:59;28.20;99.90
52899;DHT22;38763;53.096;6.062;2022-08-03T10:06:25;28.30;99.90
52899;DHT22;38763;53.096;6.062;2022-08-03T10:09:15;28.10;99.90
52899;DHT22;38763;53.096;6.062;2022-08-03T10:11:42;27.60;99.90
52899;DHT22;38763;53.096;6.062;2022-08-03T10:14:10;27.70;99.90
52899;DHT22;38763;53.096;6.062;2022-08-03T10:16:43;28.00;99.90
52899;DHT22;38763;53.096;6.062;2022-08-03T10:19:09;28.30;99.90
52899;DHT22;38763;53.096;6.062;2022-08-03T10:21:37;28.30;99.90
52899;DHT22;38763;53.096;6.062;2022-08-03T10:24:07;28.30;99.90
52899;DHT22;38763;53.096;6.062;2022-08-03T10:26:35;28.40;99.90
52899;DHT22;38763;53.096;6.062;2022-08-03T10:29:04;28.80;99.90
52899;DHT22;38763;53.096;6.062;2022-08-03T10:31:37;28.80;99.90
52899;DHT22;38763;53.096;6.062;2022-08-03T10:34:08;28.10;99.90
52899;DHT22;38763;53.096;6.062;2022-08-03T10:36:36;27.70;99.90
52899;DHT22;38763;53.096;6.062;2022-08-03T10:39:03;27.80;99.90
52899;DHT22;38763;53.096;6.062;2022-08-03T10:41:36;27.70;99.90
52899;DHT22;38763;53.096;6.062;2022-08-03T10:44:06;27.70;99.90
52899;DHT22;38763;53.096;6.062;2022-08-03T10:46:33;27.50;99.90
52899;DHT22;38763;53.096;6.062;2022-08-03T10:49:00;27.90;99.90
52899;DHT22;38763;53.096;6.062;2022-08-03T10:51:26;28.50;99.90
52899;DHT22;38763;53.096;6.062;2022-08-03T10:53:57;28.60;99.90
52899;DHT22;38763;53.096;6.062;2022-08-03T10:56:37;28.60;99.90
52899;DHT22;38763;53.096;6.062;2022-08-03T11:02:19;28.50;99.90
52899;DHT22;38763;53.096;6.062;2022-08-03T11:04:44;28.10;99.90
52899;DHT22;38763;53.096;6.062;2022-08-03T11:09:43;28.50;99.90
52899;DHT22;38763;53.096;6.062;2022-08-03T11:12:30;28.20;99.90
52899;DHT22;38763;53.096;6.062;2022-08-03T11:15:06;28.50;99.90
52899;DHT22;38763;53.096;6.062;2022-08-03T11:17:34;27.80;99.90
52899;DHT22;38763;53.096;6.062;2022-08-03T11:19:59;27.60;99.90
52899;DHT22;38763;53.096;6.062;2022-08-03T11:22:48;27.60;99.90
52899;DHT22;38763;53.096;6.062;2022-08-03T11:25:15;27.40;99.90
52899;DHT22;38763;53.096;6.062;2022-08-03T11:27:41;27.50;99.90
52899;DHT22;38763;53.096;6.062;2022-08-03T11:30:09;27.50;99.90
52899;DHT22;38763;53.096;6.062;2022-08-03T11:37:33;27.30;99.90
52899;DHT22;38763;53.096;6.062;2022-08-03T11:39:58;27.20;99.90
52899;DHT22;38763;53.096;6.062;2022-08-03T11:47:16;26.90;99.90
52899;DHT22;38763;53.096;6.062;2022-08-03T11:49:50;26.90;99.90
52899;DHT22;38763;53.096;6.062;2022-08-03T11:52:17;27.10;99.90
52899;DHT22;38763;53.096;6.062;2022-08-03T11:54:44;27.20;99.90
52899;DHT22;38763;53.096;6.062;2022-08-03T11:57:10;27.10;99.90
52899;DHT22;38763;53.096;6.062;2022-08-03T11:59:37;27.00;99.90
52899;DHT22;38763;53.096;6.062;2022-08-03T12:02:09;27.10;99.90
52899;DHT22;38763;53.096;6.062;2022-08-03T12:04:55;27.10;99.90
52899;DHT22;38763;53.096;6.062;2022-08-03T12:07:26;27.30;99.90
52899;DHT22;38763;53.096;6.062;2022-08-03T12:10:09;27.20;99.90
52899;DHT22;38763;53.096;6.062;2022-08-03T12:12:36;27.20;99.90
52899;DHT22;38763;53.096;6.062;2022-08-03T12:15:02;27.20;99.90
52899;DHT22;38763;53.096;6.062;2022-08-03T12:17:36;27.20;99.90
52899;DHT22;38763;53.096;6.062;2022-08-03T12:20:04;27.20;99.90
52899;DHT22;38763;53.096;6.062;2022-08-03T12:22:35;27.30;99.90
52899;DHT22;38763;53.096;6.062;2022-08-03T12:25:05;27.40;99.90
52899;DHT22;38763;53.096;6.062;2022-08-03T12:27:31;27.30;99.90
52899;DHT22;38763;53.096;6.062;2022-08-03T12:29:58;27.20;99.90
52899;DHT22;38763;53.096;6.062;2022-08-03T12:32:26;27.20;99.90
52899;DHT22;38763;53.096;6.062;2022-08-03T12:34:52;27.20;99.90
52899;DHT22;38763;53.096;6.062;2022-08-03T12:37:20;27.10;99.90
52899;DHT22;38763;53.096;6.062;2022-08-03T12:39:57;27.20;99.90
52899;DHT22;38763;53.096;6.062;2022-08-03T12:42:36;27.00;99.90
52899;DHT22;38763;53.096;6.062;2022-08-03T12:45:22;27.10;99.90
52899;DHT22;38763;53.096;6.062;2022-08-03T12:48:08;27.10;99.90
52899;DHT22;38763;53.096;6.062;2022-08-03T12:50:38;27.30;99.90
52899;DHT22;38763;53.096;6.062;2022-08-03T12:53:06;27.40;99.90
52899;DHT22;38763;53.096;6.062;2022-08-03T12:55:33;27.20;99.90
52899;DHT22;38763;53.096;6.062;2022-08-03T12:58:07;27.20;99.90
52899;DHT22;38763;53.096;6.062;2022-08-03T13:00:35;27.20;99.90
52899;DHT22;38763;53.096;6.062;2022-08-03T13:03:06;27.10;99.90
52899;DHT22;38763;53.096;6.062;2022-08-03T13:05:42;27.20;99.90
52899;DHT22;38763;53.096;6.062;2022-08-03T13:08:17;27.20;99.90
52899;DHT22;38763;53.096;6.062;2022-08-03T13:10:44;27.20;99.90
52899;DHT22;38763;53.096;6.062;2022-08-03T13:13:10;27.10;99.90
52899;DHT22;38763;53.096;6.062;2022-08-03T13:15:36;27.20;99.90
52899;DHT22;38763;53.096;6.062;2022-08-03T13:18:01;27.30;99.90
52899;DHT22;38763;53.096;6.062;2022-08-03T13:20:27;27.30;99.90
52899;DHT22;38763;53.096;6.062;2022-08-03T13:22:53;27.30;99.90
52899;DHT22;38763;53.096;6.062;2022-08-03T13:25:18;27.30;99.90
52899;DHT22;38763;53.096;6.062;2022-08-03T13:27:45;27.20;99.90
52899;DHT22;38763;53.096;6.062;2022-08-03T13:30:10;27.20;99.90
52899;DHT22;38763;53.096;6.062;2022-08-03T13:32:36;27.20;99.90
52899;DHT22;38763;53.096;6.062;2022-08-03T13:35:03;27.20;99.90
52899;DHT22;38763;53.096;6.062;2022-08-03T13:37:30;27.30;99.90
52899;DHT22;38763;53.096;6.062;2022-08-03T13:39:57;27.40;99.90
52899;DHT22;38763;53.096;6.062;2022-08-03T13:42:24;27.50;99.90
52899;DHT22;38763;53.096;6.062;2022-08-03T13:44:50;27.40;99.90
52899;DHT22;38763;53.096;6.062;2022-08-03T13:47:15;27.30;99.90
52899;DHT22;38763;53.096;6.062;2022-08-03T13:49:41;27.30;99.90
52899;DHT22;38763;53.096;6.062;2022-08-03T13:52:07;27.30;99.90
52899;DHT22;38763;53.096;6.062;2022-08-03T13:54:32;27.30;99.90
52899;DHT22;38763;53.096;6.062;2022-08-03T13:56:58;27.40;99.90
52899;DHT22;38763;53.096;6.062;2022-08-03T13:59:25;27.30;99.90
52899;DHT22;38763;53.096;6.062;2022-08-03T14:01:52;27.30;99.90
52899;DHT22;38763;53.096;6.062;2022-08-03T14:04:18;27.30;99.90
52899;DHT22;38763;53.096;6.062;2022-08-03T14:06:46;27.30;99.90
52899;DHT22;38763;53.096;6.062;2022-08-03T14:09:13;27.30;99.90
52899;DHT22;38763;53.096;6.062;2022-08-03T14:11:42;27.40;99.90
52899;DHT22;38763;53.096;6.062;2022-08-03T14:14:08;27.40;99.90
52899;DHT22;38763;53.096;6.062;2022-08-03T14:16:34;27.30;99.90
52899;DHT22;38763;53.096;6.062;2022-08-03T14:19:00;27.40;99.90
52899;DHT22;38763;53.096;6.062;2022-08-03T14:21:26;27.40;99.90
52899;DHT22;38763;53.096;6.062;2022-08-03T14:23:51;27.60;99.90
52899;DHT22;38763;53.096;6.062;2022-08-03T14:26:17;27.50;99.90
52899;DHT22;38763;53.096;6.062;2022-08-03T14:28:44;27.60;99.90
52899;DHT22;38763;53.096;6.062;2022-08-03T14:31:10;27.50;99.90
52899;DHT22;38763;53.096;6.062;2022-08-03T14:33:36;27.40;99.90
52899;DHT22;38763;53.096;6.062;2022-08-03T14:36:01;27.50;99.90
52899;DHT22;38763;53.096;6.062;2022-08-03T14:38:27;27.40;99.90
52899;DHT22;38763;53.096;6.062;2022-08-03T14:40:52;27.40;99.90
52899;DHT22;38763;53.096;6.062;2022-08-03T14:43:18;27.30;99.90
52899;DHT22;38763;53.096;6.062;2022-08-03T14:45:51;27.30;99.90
52899;DHT22;38763;53.096;6.062;2022-08-03T14:48:18;27.40;99.90
52899;DHT22;38763;53.096;6.062;2022-08-03T14:50:44;27.40;99.90
52899;DHT22;38763;53.096;6.062;2022-08-03T14:53:10;27.50;99.90
52899;DHT22;38763;53.096;6.062;2022-08-03T14:55:36;27.40;99.90
52899;DHT22;38763;53.096;6.062;2022-08-03T14:58:01;27.40;99.90
52899;DHT22;38763;53.096;6.062;2022-08-03T15:00:33;27.50;99.90
52899;DHT22;38763;53.096;6.062;2022-08-03T15:03:02;27.30;99.90
52899;DHT22;38763;53.096;6.062;2022-08-03T15:05:28;27.40;99.90
52899;DHT22;38763;53.096;6.062;2022-08-03T15:07:53;27.50;99.90
52899;DHT22;38763;53.096;6.062;2022-08-03T15:10:19;27.50;99.90
52899;DHT22;38763;53.096;6.062;2022-08-03T15:12:44;27.50;99.90
52899;DHT22;38763;53.096;6.062;2022-08-03T15:15:10;27.50;99.90
52899;DHT22;38763;53.096;6.062;2022-08-03T15:17:36;27.50;99.90
52899;DHT22;38763;53.096;6.062;2022-08-03T15:20:02;27.50;99.90
52899;DHT22;38763;53.096;6.062;2022-08-03T15:22:28;27.50;99.90
52899;DHT22;38763;53.096;6.062;2022-08-03T15:24:55;27.50;99.90
52899;DHT22;38763;53.096;6.062;2022-08-03T15:27:22;27.50;99.90
52899;DHT22;38763;53.096;6.062;2022-08-03T15:29:47;27.50;99.90
52899;DHT22;38763;53.096;6.062;2022-08-03T15:32:13;27.50;99.90
52899;DHT22;38763;53.096;6.062;2022-08-03T15:34:39;27.40;99.90
52899;DHT22;38763;53.096;6.062;2022-08-03T15:37:05;27.40;99.90
52899;DHT22;38763;53.096;6.062;2022-08-03T15:39:30;27.40;99.90
52899;DHT22;38763;53.096;6.062;2022-08-03T15:41:56;27.30;99.90
52899;DHT22;38763;53.096;6.062;2022-08-03T15:44:21;27.40;99.90
52899;DHT22;38763;53.096;6.062;2022-08-03T15:46:47;27.40;99.90
52899;DHT22;38763;53.096;6.062;2022-08-03T15:49:13;27.30;99.90
52899;DHT22;38763;53.096;6.062;2022-08-03T15:51:38;27.20;99.90
52899;DHT22;38763;53.096;6.062;2022-08-03T15:54:05;27.20;99.90
52899;DHT22;38763;53.096;6.062;2022-08-03T15:56:31;27.10;99.90
52899;DHT22;38763;53.096;6.062;2022-08-03T15:58:57;27.10;99.90
52899;DHT22;38763;53.096;6.062;2022-08-03T16:01:23;27.10;99.90
52899;DHT22;38763;53.096;6.062;2022-08-03T16:03:50;27.10;99.90
52899;DHT22;38763;53.096;6.062;2022-08-03T16:06:16;27.10;99.90
52899;DHT22;38763;53.096;6.062;2022-08-03T16:08:42;27.10;99.90